createdAt,value
2018-12-20T00:02:12.045Z,33.07
2018-12-20T00:04:40.295Z,31.83
2018-12-20T00:07:08.648Z,30.87
2018-12-20T00:09:37.068Z,31.13
2018-12-20T00:12:05.415Z,31.83
2018-12-20T00:14:33.760Z,33.40
2018-12-20T00:17:07.868Z,33.13
2018-12-20T00:19:36.208Z,31.10
2018-12-20T00:22:04.555Z,33.23
2018-12-20T00:24:32.916Z,31.63
2018-12-20T00:27:01.413Z,31.63
2018-12-20T00:29:29.807Z,32.33
2018-12-20T00:31:57.897Z,30.73
2018-12-20T00:34:26.609Z,32.63
2018-12-20T00:36:54.633Z,30.43
2018-12-20T00:39:22.940Z,30.90
2018-12-20T00:41:51.248Z,31.53
2018-12-20T00:44:19.656Z,30.60
2018-12-20T00:46:47.902Z,32.27
2018-12-20T00:49:16.237Z,31.10
2018-12-20T00:51:44.563Z,31.60
2018-12-20T00:54:13.332Z,32.83
2018-12-20T00:56:41.674Z,31.70
2018-12-20T00:59:10.371Z,30.37
2018-12-20T01:01:38.874Z,32.57
2018-12-20T01:04:07.047Z,31.67
2018-12-20T01:06:35.354Z,32.70
2018-12-20T01:09:03.739Z,31.67
2018-12-20T01:11:32.008Z,29.83
2018-12-20T01:14:00.339Z,30.03
2018-12-20T01:16:28.876Z,32.90
2018-12-20T01:18:57.145Z,33.23
2018-12-20T01:21:25.611Z,31.57
2018-12-20T01:23:53.743Z,32.27
2018-12-20T01:26:22.093Z,32.67
2018-12-20T01:28:50.618Z,32.20
2018-12-20T01:31:18.817Z,31.87
2018-12-20T01:33:47.043Z,32.47
2018-12-20T01:36:15.413Z,30.33
2018-12-20T01:38:43.787Z,31.43
2018-12-20T01:41:12.069Z,29.53
2018-12-20T01:43:40.315Z,32.13
2018-12-20T01:46:09.098Z,32.87
2018-12-20T01:48:37.270Z,32.57
2018-12-20T01:51:05.610Z,29.50
2018-12-20T01:53:33.946Z,32.67
2018-12-20T01:56:02.349Z,30.73
2018-12-20T01:58:30.617Z,32.07
2018-12-20T02:00:58.994Z,31.97
2018-12-20T02:03:27.369Z,33.23
2018-12-20T02:05:55.614Z,31.80
2018-12-20T02:08:24.015Z,32.07
2018-12-20T02:10:52.273Z,32.67
2018-12-20T02:13:20.747Z,31.87
2018-12-20T02:15:48.961Z,32.73
2018-12-20T02:18:17.259Z,32.33
2018-12-20T02:20:45.757Z,32.43
2018-12-20T02:23:14.015Z,32.37
2018-12-20T02:25:42.247Z,32.97
2018-12-20T02:28:10.586Z,32.23
2018-12-20T02:30:38.900Z,32.13
2018-12-20T02:33:07.335Z,31.73
2018-12-20T02:35:35.749Z,31.33
2018-12-20T02:38:04.041Z,31.10
2018-12-20T02:40:32.323Z,31.47
2018-12-20T02:43:00.562Z,32.63
2018-12-20T02:45:28.896Z,33.13
2018-12-20T02:47:57.179Z,32.43
2018-12-20T02:50:25.529Z,32.60
2018-12-20T02:52:53.912Z,32.07
2018-12-20T02:55:22.238Z,31.90
2018-12-20T02:57:50.913Z,32.40
2018-12-20T03:00:19.135Z,33.60
2018-12-20T03:02:47.472Z,32.83
2018-12-20T03:05:15.801Z,30.77
2018-12-20T03:07:44.181Z,31.90
2018-12-20T03:10:12.762Z,32.93
2018-12-20T03:12:40.802Z,30.13
2018-12-20T03:15:09.331Z,32.40
2018-12-20T03:17:37.647Z,30.17
2018-12-20T03:20:05.816Z,31.60
2018-12-20T03:22:34.475Z,33.67
2018-12-20T03:25:02.490Z,32.37
2018-12-20T03:27:31.658Z,32.10
2018-12-20T03:29:59.945Z,31.27
2018-12-20T03:32:28.191Z,30.63
2018-12-20T03:34:56.516Z,31.33
2018-12-20T03:37:24.919Z,31.43
2018-12-20T03:39:53.262Z,31.23
2018-12-20T03:42:21.692Z,31.23
2018-12-20T03:44:49.881Z,32.37
2018-12-20T03:47:18.177Z,30.20
2018-12-20T03:49:46.502Z,31.73
2018-12-20T03:52:14.931Z,30.77
2018-12-20T03:54:43.184Z,30.53
2018-12-20T03:57:11.507Z,29.53
2018-12-20T03:59:39.836Z,34.00
2018-12-20T04:02:08.479Z,32.30
2018-12-20T04:04:36.640Z,30.90
2018-12-20T04:07:04.972Z,31.43
2018-12-20T04:09:33.342Z,31.57
2018-12-20T04:12:01.766Z,30.73
2018-12-20T04:14:30.046Z,32.17
2018-12-20T04:16:58.295Z,32.70
2018-12-20T04:19:26.646Z,31.27
2018-12-20T04:21:55.175Z,34.37
2018-12-20T04:24:23.155Z,32.20
2018-12-20T04:26:51.477Z,33.53
2018-12-20T04:29:19.959Z,34.10
2018-12-20T04:31:48.357Z,31.07
2018-12-20T04:34:16.529Z,38.13
2018-12-20T04:36:44.799Z,30.87
2018-12-20T04:39:13.169Z,30.37
2018-12-20T04:41:41.460Z,30.53
2018-12-20T04:44:10.002Z,31.77
2018-12-20T04:46:38.110Z,31.00
2018-12-20T04:49:06.618Z,31.90
2018-12-20T04:51:35.317Z,30.67
2018-12-20T04:54:03.109Z,32.30
2018-12-20T04:56:31.438Z,34.40
2018-12-20T04:58:59.995Z,32.83
2018-12-20T05:01:28.346Z,73.97
2018-12-20T05:03:56.510Z,33.93
2018-12-20T05:06:24.850Z,31.83
2018-12-20T05:08:53.129Z,33.20
2018-12-20T05:11:21.682Z,32.07
2018-12-20T05:13:49.784Z,32.43
2018-12-20T05:16:18.143Z,30.30
2018-12-20T05:18:46.504Z,29.83
2018-12-20T05:21:14.898Z,30.27
2018-12-20T05:23:43.100Z,31.37
2018-12-20T05:26:11.432Z,32.57
2018-12-20T05:28:39.790Z,30.50
2018-12-20T05:31:08.809Z,31.37
2018-12-20T05:33:36.508Z,32.27
2018-12-20T05:36:04.834Z,35.47
2018-12-20T05:38:33.121Z,30.43
2018-12-20T05:41:01.446Z,31.33
2018-12-20T05:43:29.822Z,30.27
2018-12-20T05:46:04.388Z,35.40
2018-12-20T05:48:26.742Z,31.20
2018-12-20T05:50:54.904Z,30.13
2018-12-20T05:53:23.178Z,28.40
2018-12-20T05:55:51.539Z,31.10
2018-12-20T05:58:19.875Z,29.30
2018-12-20T06:00:48.451Z,27.90
2018-12-20T06:03:16.729Z,31.07
2018-12-20T06:05:45.013Z,29.77
2018-12-20T06:08:13.188Z,32.07
2018-12-20T06:10:41.644Z,32.47
2018-12-20T06:13:09.936Z,31.63
2018-12-20T06:15:38.198Z,31.23
2018-12-20T06:18:06.691Z,30.80
2018-12-20T06:20:34.939Z,31.57
2018-12-20T06:23:03.198Z,30.83
2018-12-20T06:25:31.901Z,31.60
2018-12-20T06:28:00.230Z,31.50
2018-12-20T06:30:28.575Z,30.67
2018-12-20T06:32:56.907Z,30.90
2018-12-20T06:35:25.245Z,31.73
2018-12-20T06:37:53.568Z,31.40
2018-12-20T06:40:21.900Z,29.77
2018-12-20T06:42:50.243Z,30.07
2018-12-20T06:45:18.564Z,30.20
2018-12-20T06:47:46.901Z,34.93
2018-12-20T06:50:15.236Z,30.57
2018-12-20T06:52:43.570Z,31.70
2018-12-20T06:55:11.896Z,31.33
2018-12-20T06:57:40.224Z,31.10
2018-12-20T07:00:08.561Z,29.53
2018-12-20T07:02:38.504Z,29.97
2018-12-20T07:05:05.229Z,28.97
2018-12-20T07:07:33.816Z,31.37
2018-12-20T07:10:01.917Z,28.87
2018-12-20T07:12:30.258Z,29.37
2018-12-20T07:14:58.816Z,29.77
2018-12-20T07:17:26.916Z,30.27
2018-12-20T07:19:55.259Z,29.77
2018-12-20T07:22:23.587Z,29.93
2018-12-20T07:24:51.926Z,30.83
2018-12-20T07:27:20.258Z,29.87
2018-12-20T07:29:48.586Z,28.67
2018-12-20T07:32:24.801Z,29.07
2018-12-20T07:34:48.013Z,30.50
2018-12-20T07:37:13.589Z,28.43
2018-12-20T07:39:42.832Z,30.10
2018-12-20T07:42:11.180Z,28.23
2018-12-20T07:44:39.509Z,29.40
2018-12-20T07:47:07.840Z,31.47
2018-12-20T07:49:36.204Z,46.60
2018-12-20T07:52:04.557Z,82.50
2018-12-20T07:54:32.931Z,58.13
2018-12-20T07:57:01.261Z,39.40
2018-12-20T07:59:29.594Z,31.73
2018-12-20T08:01:58.025Z,34.77
2018-12-20T08:04:26.588Z,41.67
2018-12-20T08:06:54.916Z,35.53
2018-12-20T08:09:23.554Z,29.27
2018-12-20T08:11:51.892Z,30.80
2018-12-20T08:14:20.235Z,31.83
2018-12-20T08:16:48.577Z,32.67
2018-12-20T08:19:16.915Z,34.07
2018-12-20T08:21:45.244Z,35.97
2018-12-20T08:24:13.585Z,36.97
2018-12-20T08:26:41.921Z,35.40
2018-12-20T08:29:10.267Z,39.90
2018-12-20T08:31:38.593Z,41.93
2018-12-20T08:34:06.945Z,95.00
2018-12-20T08:36:35.281Z,33.50
2018-12-20T08:39:03.826Z,31.67
2018-12-20T08:41:32.843Z,32.03
2018-12-20T08:44:01.174Z,31.83
2018-12-20T08:46:31.648Z,34.20
2018-12-20T08:48:57.857Z,32.00
2018-12-20T08:51:26.195Z,35.47
2018-12-20T08:53:54.526Z,53.80
2018-12-20T08:56:22.884Z,39.73
2018-12-20T08:58:51.211Z,32.20
2018-12-20T09:01:19.551Z,31.60
2018-12-20T09:03:47.894Z,29.07
2018-12-20T09:06:16.213Z,31.83
2018-12-20T09:08:45.561Z,31.63
2018-12-20T09:11:14.216Z,30.73
2018-12-20T09:13:42.564Z,29.87
2018-12-20T09:16:10.902Z,31.67
2018-12-20T09:18:39.224Z,31.73
2018-12-20T09:21:07.559Z,28.97
2018-12-20T09:23:36.163Z,32.00
2018-12-20T09:26:04.493Z,30.07
2018-12-20T09:28:32.847Z,30.00
2018-12-20T09:31:01.184Z,31.93
2018-12-20T09:33:29.525Z,33.60
2018-12-20T09:35:57.861Z,31.60
2018-12-20T09:38:26.190Z,32.50
2018-12-20T09:40:54.520Z,30.30
2018-12-20T09:43:24.887Z,32.97
2018-12-20T09:45:51.192Z,31.67
2018-12-20T09:48:19.510Z,31.20
2018-12-20T09:50:47.847Z,30.60
2018-12-20T09:53:16.191Z,31.37
2018-12-20T09:55:44.747Z,28.87
2018-12-20T09:58:12.857Z,30.03
2018-12-20T10:00:41.270Z,29.63
2018-12-20T10:03:09.579Z,32.13
2018-12-20T10:05:37.922Z,32.10
2018-12-20T10:08:06.244Z,31.03
2018-12-20T10:10:34.581Z,30.97
2018-12-20T10:13:02.921Z,30.97
2018-12-20T10:15:31.266Z,29.90
2018-12-20T10:17:59.617Z,32.57
2018-12-20T10:20:27.928Z,32.40
2018-12-20T10:22:56.270Z,32.00
2018-12-20T10:25:24.855Z,32.77
2018-12-20T10:27:52.962Z,35.17
2018-12-20T10:30:21.456Z,31.60
2018-12-20T10:32:49.795Z,33.40
2018-12-20T10:35:18.143Z,34.57
2018-12-20T10:37:46.496Z,59.80
2018-12-20T10:40:14.827Z,52.03
2018-12-20T10:42:43.176Z,40.70
2018-12-20T10:45:11.496Z,37.30
2018-12-20T10:47:39.848Z,38.80
2018-12-20T10:50:08.177Z,39.13
2018-12-20T10:52:36.893Z,36.93
2018-12-20T10:55:06.127Z,34.57
2018-12-20T10:57:34.477Z,34.00
2018-12-20T11:00:03.073Z,33.27
2018-12-20T11:02:36.923Z,35.57
2018-12-20T11:05:05.302Z,35.87
2018-12-20T11:07:39.381Z,36.83
2018-12-20T11:10:13.007Z,38.33
2018-12-20T11:12:46.899Z,34.70
2018-12-20T11:15:15.323Z,38.27
2018-12-20T11:17:43.649Z,37.17
2018-12-20T11:20:12.131Z,36.27
2018-12-20T11:22:40.501Z,36.50
2018-12-20T11:25:08.857Z,36.00
2018-12-20T11:27:37.203Z,39.30
2018-12-20T11:30:05.558Z,37.47
2018-12-20T11:32:33.893Z,37.80
2018-12-20T11:35:02.229Z,39.63
2018-12-20T11:37:31.749Z,37.53
2018-12-20T11:39:59.988Z,35.47
2018-12-20T11:42:28.210Z,38.97
2018-12-20T11:44:56.565Z,34.90
2018-12-20T11:47:24.887Z,36.13
2018-12-20T11:49:53.216Z,37.10
2018-12-20T11:52:21.566Z,36.50
2018-12-20T11:54:49.901Z,35.83
2018-12-20T11:57:18.481Z,35.93
2018-12-20T11:59:46.583Z,35.70
2018-12-20T12:02:14.937Z,133.30
2018-12-20T12:04:43.844Z,88.57
2018-12-20T12:07:12.178Z,43.07
2018-12-20T12:09:40.514Z,40.83
2018-12-20T12:12:08.853Z,39.23
2018-12-20T12:14:37.196Z,37.57
2018-12-20T12:17:05.905Z,35.90
2018-12-20T12:19:34.239Z,36.90
2018-12-20T12:22:02.585Z,37.20
2018-12-20T12:24:30.917Z,38.20
2018-12-20T12:26:59.259Z,40.37
2018-12-20T12:29:27.580Z,38.90
2018-12-20T12:31:55.914Z,36.77
2018-12-20T12:34:24.262Z,37.03
2018-12-20T12:36:52.600Z,127.10
2018-12-20T12:39:20.935Z,39.23
2018-12-20T12:41:49.256Z,58.20
2018-12-20T12:44:17.601Z,61.90
2018-12-20T12:46:45.937Z,50.63
2018-12-20T12:49:14.552Z,40.07
2018-12-20T12:51:43.805Z,38.67
2018-12-20T12:54:11.223Z,38.50
2018-12-20T12:56:39.560Z,39.10
2018-12-20T12:59:07.901Z,36.80
2018-12-20T13:01:36.218Z,37.90
2018-12-20T13:04:04.551Z,37.40
2018-12-20T13:06:32.879Z,37.63
2018-12-20T13:09:01.218Z,38.63
2018-12-20T13:11:29.574Z,37.03
2018-12-20T13:13:57.921Z,37.50
2018-12-20T13:16:26.250Z,40.63
2018-12-20T13:18:54.592Z,41.23
2018-12-20T13:21:22.934Z,40.70
2018-12-20T13:23:51.578Z,41.83
2018-12-20T13:26:19.933Z,38.67
2018-12-20T13:28:48.254Z,40.97
2018-12-20T13:31:16.861Z,65.07
2018-12-20T13:33:45.207Z,44.73
2018-12-20T13:36:13.535Z,44.30
2018-12-20T13:38:41.869Z,43.90
2018-12-20T13:41:10.205Z,44.30
2018-12-20T13:43:38.546Z,45.63
2018-12-20T13:46:06.889Z,44.03
2018-12-20T13:48:35.216Z,42.27
2018-12-20T13:51:03.649Z,42.27
2018-12-20T13:53:31.983Z,40.77
2018-12-20T13:56:00.335Z,42.60
2018-12-20T13:58:28.663Z,41.67
2018-12-20T14:00:56.989Z,42.50
2018-12-20T14:03:25.317Z,45.30
2018-12-20T14:05:53.667Z,42.57
2018-12-20T14:08:22.007Z,42.43
2018-12-20T14:10:50.320Z,41.13
2018-12-20T14:13:18.662Z,40.87
2018-12-20T14:15:47.003Z,42.23
2018-12-20T14:18:15.349Z,41.93
2018-12-20T14:20:43.697Z,47.87
2018-12-20T14:23:12.049Z,114.90
2018-12-20T14:25:40.388Z,103.00
2018-12-20T14:28:08.751Z,76.27
2018-12-20T14:30:37.113Z,46.20
2018-12-20T14:33:05.475Z,44.00
2018-12-20T14:35:33.801Z,44.33
2018-12-20T14:38:02.137Z,44.17
2018-12-20T14:40:30.464Z,43.93
2018-12-20T14:42:58.793Z,46.63
2018-12-20T14:45:27.132Z,46.07
2018-12-20T14:47:55.478Z,46.80
2018-12-20T14:50:23.803Z,44.53
2018-12-20T14:52:52.165Z,43.70
2018-12-20T14:55:20.499Z,44.60
2018-12-20T14:57:48.842Z,43.50
2018-12-20T15:00:17.178Z,42.77
2018-12-20T15:02:45.512Z,43.67
2018-12-20T15:05:13.864Z,46.53
2018-12-20T15:07:42.189Z,55.87
2018-12-20T15:10:10.545Z,48.37
2018-12-20T15:12:38.925Z,45.53
2018-12-20T15:15:07.262Z,45.40
2018-12-20T15:17:36.972Z,44.03
2018-12-20T15:20:03.959Z,41.57
2018-12-20T15:22:32.303Z,38.00
2018-12-20T15:25:00.639Z,39.97
2018-12-20T15:27:28.992Z,38.03
2018-12-20T15:29:57.330Z,40.03
2018-12-20T15:32:26.527Z,39.63
2018-12-20T15:34:54.052Z,40.20
2018-12-20T15:37:22.423Z,40.80
2018-12-20T15:39:51.419Z,41.90
2018-12-20T15:42:19.752Z,40.60
2018-12-20T15:44:48.087Z,41.53
2018-12-20T15:47:16.452Z,109.43
2018-12-20T15:49:44.792Z,47.70
2018-12-20T15:52:13.130Z,44.63
2018-12-20T15:54:41.478Z,45.70
2018-12-20T15:57:09.820Z,49.73
2018-12-20T15:59:38.185Z,51.13
2018-12-20T16:02:06.513Z,49.60
2018-12-20T16:04:34.861Z,42.70
2018-12-20T16:07:03.199Z,41.70
2018-12-20T16:09:31.879Z,40.00
2018-12-20T16:12:00.226Z,39.87
2018-12-20T16:14:28.551Z,43.03
2018-12-20T16:16:56.883Z,45.17
2018-12-20T16:19:25.227Z,44.17
2018-12-20T16:21:53.564Z,46.63
2018-12-20T16:24:21.908Z,46.10
2018-12-20T16:26:50.295Z,43.93
2018-12-20T16:29:18.634Z,44.87
2018-12-20T16:31:47.492Z,47.33
2018-12-20T16:34:16.170Z,63.30
2018-12-20T16:36:44.506Z,56.07
2018-12-20T16:39:12.854Z,47.77
2018-12-20T16:41:41.199Z,49.23
2018-12-20T16:44:09.533Z,48.07
2018-12-20T16:46:38.083Z,48.70
2018-12-20T16:49:13.390Z,48.60
2018-12-20T16:51:34.539Z,48.30
2018-12-20T16:54:02.881Z,51.83
2018-12-20T16:56:31.537Z,46.43
2018-12-20T16:58:59.872Z,47.57
2018-12-20T17:01:28.236Z,50.47
2018-12-20T17:03:56.948Z,49.10
2018-12-20T17:06:25.301Z,50.83
2018-12-20T17:08:53.970Z,51.87
2018-12-20T17:11:22.312Z,54.10
2018-12-20T17:13:50.632Z,54.53
2018-12-20T17:16:18.975Z,60.30
2018-12-20T17:18:47.609Z,53.00
2018-12-20T17:21:15.675Z,64.00
2018-12-20T17:23:44.054Z,126.33
2018-12-20T17:26:12.405Z,56.77
2018-12-20T17:28:40.750Z,49.37
2018-12-20T17:31:09.092Z,49.63
2018-12-20T17:33:37.436Z,52.50
2018-12-20T17:36:05.774Z,51.07
2018-12-20T17:38:34.329Z,51.10
2018-12-20T17:41:02.672Z,50.90
2018-12-20T17:43:30.999Z,48.37
2018-12-20T17:45:59.339Z,48.73
2018-12-20T17:48:29.367Z,48.23
2018-12-20T17:50:56.032Z,52.67
2018-12-20T17:53:24.371Z,49.93
2018-12-20T17:55:52.798Z,48.93
2018-12-20T17:58:21.158Z,46.53
2018-12-20T18:00:49.522Z,46.53
2018-12-20T18:03:17.895Z,48.87
2018-12-20T18:05:46.235Z,48.63
2018-12-20T18:08:14.639Z,49.40
2018-12-20T18:10:43.300Z,49.27
2018-12-20T18:13:11.881Z,50.37
2018-12-20T18:15:40.068Z,52.00
2018-12-20T18:18:08.519Z,65.33
2018-12-20T18:20:36.794Z,53.67
2018-12-20T18:23:05.143Z,52.40
2018-12-20T18:25:33.483Z,52.37
2018-12-20T18:28:01.838Z,51.53
2018-12-20T18:30:30.189Z,53.40
2018-12-20T18:32:58.557Z,52.70
2018-12-20T18:35:26.860Z,51.57
2018-12-20T18:37:55.912Z,122.67
2018-12-20T18:40:24.259Z,86.33
2018-12-20T18:42:52.630Z,76.63
2018-12-20T18:45:20.966Z,47.47
2018-12-20T18:47:49.322Z,48.07
2018-12-20T18:50:17.735Z,47.70
2018-12-20T18:52:46.128Z,48.87
2018-12-20T18:55:14.510Z,49.87
2018-12-20T18:57:42.860Z,48.97
2018-12-20T19:00:11.198Z,50.17
2018-12-20T19:02:39.757Z,48.37
2018-12-20T19:05:07.861Z,48.73
2018-12-20T19:07:36.250Z,49.27
2018-12-20T19:10:05.549Z,48.83
2018-12-20T19:12:33.895Z,51.77
2018-12-20T19:15:02.236Z,50.73
2018-12-20T19:17:30.576Z,50.27
2018-12-20T19:19:58.925Z,51.20
2018-12-20T19:22:27.273Z,51.47
2018-12-20T19:24:55.622Z,53.53
2018-12-20T19:27:23.973Z,148.63
2018-12-20T19:29:52.315Z,54.60
2018-12-20T19:32:21.311Z,53.90
2018-12-20T19:34:49.654Z,55.77
2018-12-20T19:37:18.398Z,52.03
2018-12-20T19:39:46.727Z,54.00
2018-12-20T19:42:15.088Z,54.67
2018-12-20T19:44:43.402Z,56.03
2018-12-20T19:47:11.912Z,74.77
2018-12-20T19:49:40.508Z,56.13
2018-12-20T19:52:09.428Z,56.87
2018-12-20T19:54:37.870Z,58.57
2018-12-20T19:57:06.199Z,59.37
2018-12-20T19:59:38.592Z,59.07
2018-12-20T20:02:04.742Z,59.27
2018-12-20T20:04:31.244Z,58.37
2018-12-20T20:06:59.615Z,58.87
2018-12-20T20:09:28.217Z,58.10
2018-12-20T20:11:56.341Z,58.57
2018-12-20T20:14:24.701Z,60.87
2018-12-20T20:16:53.043Z,91.90
2018-12-20T20:19:21.395Z,102.40
2018-12-20T20:21:49.752Z,64.00
2018-12-20T20:24:18.151Z,59.47
2018-12-20T20:26:46.515Z,58.20
2018-12-20T20:29:14.839Z,58.03
2018-12-20T20:31:43.186Z,57.07
2018-12-20T20:34:11.827Z,55.53
2018-12-20T20:36:40.193Z,57.47
2018-12-20T20:39:08.685Z,54.17
2018-12-20T20:41:37.023Z,56.03
2018-12-20T20:44:05.384Z,56.07
2018-12-20T20:46:33.722Z,58.33
2018-12-20T20:49:02.059Z,59.40
2018-12-20T20:51:30.730Z,59.50
2018-12-20T20:53:59.093Z,58.27
2018-12-20T20:56:27.422Z,58.83
2018-12-20T20:58:55.768Z,63.23
2018-12-20T21:01:24.122Z,64.27
2018-12-20T21:03:52.468Z,59.73
2018-12-20T21:06:21.712Z,60.47
2018-12-20T21:08:50.115Z,58.40
2018-12-20T21:11:18.467Z,59.70
2018-12-20T21:13:46.812Z,58.50
2018-12-20T21:16:15.174Z,57.13
2018-12-20T21:18:43.493Z,58.53
2018-12-20T21:21:11.837Z,59.17
2018-12-20T21:23:40.194Z,57.30
2018-12-20T21:26:08.541Z,57.80
2018-12-20T21:28:36.879Z,56.43
2018-12-20T21:31:05.538Z,56.30
2018-12-20T21:33:34.215Z,57.13
2018-12-20T21:36:02.557Z,60.40
2018-12-20T21:38:30.906Z,59.50
2018-12-20T21:40:59.246Z,55.90
2018-12-20T21:43:27.587Z,54.10
2018-12-20T21:45:55.927Z,56.00
2018-12-20T21:48:24.268Z,55.67
2018-12-20T22:08:49.572Z,54.50
2018-12-20T22:11:17.920Z,53.90
2018-12-20T22:13:46.256Z,54.00
2018-12-20T22:16:14.688Z,53.13
2018-12-20T22:18:43.138Z,53.40
2018-12-20T22:21:11.492Z,58.10
2018-12-20T22:23:39.847Z,57.13
2018-12-20T22:26:08.249Z,55.10
2018-12-20T22:28:36.598Z,51.93
2018-12-20T22:31:04.960Z,52.37
2018-12-20T22:33:33.289Z,53.73
2018-12-20T22:36:01.689Z,51.77
2018-12-20T22:38:30.035Z,52.20
2018-12-20T22:40:58.371Z,53.10
2018-12-20T22:43:26.701Z,49.67
2018-12-20T22:45:55.278Z,52.97
2018-12-20T22:48:23.407Z,53.27
2018-12-20T22:50:55.915Z,54.50
2018-12-20T22:53:20.072Z,52.37
2018-12-20T22:55:48.400Z,51.53
2018-12-20T22:58:16.751Z,52.13
2018-12-20T23:00:45.086Z,50.60
2018-12-20T23:03:13.686Z,51.03
2018-12-20T23:05:41.818Z,52.03
2018-12-20T23:08:10.183Z,49.80
2018-12-20T23:10:38.516Z,51.13
2018-12-20T23:13:06.847Z,49.90
2018-12-20T23:15:35.206Z,50.83
2018-12-20T23:18:03.574Z,51.03
2018-12-20T23:20:31.926Z,48.73
2018-12-20T23:23:00.262Z,50.13
2018-12-20T23:25:28.584Z,49.30
2018-12-20T23:27:56.919Z,49.90
2018-12-20T23:30:26.279Z,50.07
2018-12-20T23:32:54.624Z,49.23
2018-12-20T23:35:22.967Z,48.67
2018-12-20T23:37:51.308Z,49.43
2018-12-20T23:40:19.647Z,47.97
2018-12-20T23:42:48.017Z,46.90
2018-12-20T23:45:16.344Z,48.47
2018-12-20T23:47:44.672Z,47.67
2018-12-20T23:50:13.012Z,47.20
2018-12-20T23:52:41.361Z,48.20
2018-12-20T23:55:09.702Z,48.07
2018-12-20T23:57:38.054Z,47.07
